createdAt,value
2023-05-11T00:02:07.942Z,13.50
2023-05-11T00:04:35.237Z,15.20
2023-05-11T00:07:02.496Z,14.20
2023-05-11T00:09:30.180Z,14.47
2023-05-11T00:11:57.521Z,14.80
2023-05-11T00:14:24.768Z,12.90
2023-05-11T00:16:51.918Z,14.40
2023-05-11T00:19:19.080Z,13.50
2023-05-11T00:21:46.541Z,13.70
2023-05-11T00:24:13.678Z,12.97
2023-05-11T00:26:40.848Z,11.67
2023-05-11T00:29:08.005Z,13.80
2023-05-11T00:31:35.747Z,14.33
2023-05-11T00:34:03.008Z,14.53
2023-05-11T00:36:30.247Z,15.73
2023-05-11T00:38:58.052Z,14.30
2023-05-11T00:41:25.843Z,15.97
2023-05-11T00:43:53.205Z,15.53
2023-05-11T00:46:21.343Z,16.27
2023-05-11T00:48:48.575Z,15.57
2023-05-11T00:51:16.089Z,15.30
2023-05-11T00:54:14.997Z,14.70
2023-05-11T00:56:42.664Z,15.87
2023-05-11T00:59:09.872Z,16.10
2023-05-11T01:01:38.937Z,14.13
2023-05-11T01:04:07.010Z,15.47
2023-05-11T01:06:46.533Z,15.50
2023-05-11T01:09:35.590Z,16.00
2023-05-11T01:12:08.762Z,15.43
2023-05-11T01:14:44.985Z,16.27
2023-05-11T01:17:43.938Z,15.33
2023-05-11T01:20:17.402Z,15.57
2023-05-11T01:22:53.608Z,15.07
2023-05-11T01:25:42.548Z,16.73
2023-05-11T01:28:20.261Z,16.37
2023-05-11T01:31:08.733Z,17.20
2023-05-11T01:33:39.476Z,16.87
2023-05-11T01:36:12.606Z,16.17
2023-05-11T01:38:44.204Z,15.53
2023-05-11T01:41:15.275Z,16.97
2023-05-11T01:43:52.716Z,16.80
2023-05-11T01:46:23.194Z,15.77
2023-05-11T01:48:54.444Z,16.50
2023-05-11T01:51:24.103Z,16.90
2023-05-11T01:53:53.295Z,16.70
2023-05-11T01:56:22.315Z,18.73
2023-05-11T01:58:50.685Z,17.57
2023-05-11T02:01:20.206Z,17.47
2023-05-11T02:03:52.764Z,18.60
2023-05-11T02:06:22.750Z,18.77
2023-05-11T02:08:53.553Z,19.67
2023-05-11T02:11:23.626Z,19.20
2023-05-11T02:13:53.128Z,19.77
2023-05-11T02:16:21.879Z,18.53
2023-05-11T02:18:49.881Z,20.67
2023-05-11T02:21:17.742Z,20.33
2023-05-11T02:23:47.199Z,21.13
2023-05-11T02:26:16.652Z,19.60
2023-05-11T02:28:43.955Z,19.70
2023-05-11T02:31:19.647Z,20.10
2023-05-11T02:33:52.091Z,21.03
2023-05-11T02:36:22.437Z,21.07
2023-05-11T02:38:56.722Z,21.70
2023-05-11T02:41:27.908Z,19.87
2023-05-11T02:44:01.361Z,24.00
2023-05-11T02:46:35.269Z,23.30
2023-05-11T02:49:05.647Z,21.90
2023-05-11T02:51:39.244Z,20.50
2023-05-11T02:54:10.941Z,23.60
2023-05-11T02:56:41.894Z,24.07
2023-05-11T02:59:10.952Z,19.63
2023-05-11T03:01:39.771Z,19.40
2023-05-11T03:04:07.336Z,17.03
2023-05-11T03:06:36.193Z,19.90
2023-05-11T03:09:07.272Z,19.80
2023-05-11T03:11:41.367Z,20.47
2023-05-11T03:14:09.536Z,20.73
2023-05-11T03:16:38.221Z,19.93
2023-05-11T03:19:08.355Z,17.70
2023-05-11T03:21:38.237Z,15.47
2023-05-11T03:24:31.194Z,16.83
2023-05-11T03:27:01.045Z,16.73
2023-05-11T03:29:31.923Z,16.20
2023-05-11T03:31:59.144Z,18.63
2023-05-11T03:34:26.780Z,17.60
2023-05-11T03:36:54.905Z,15.47
2023-05-11T03:39:23.296Z,13.90
2023-05-11T03:41:53.249Z,16.67
2023-05-11T03:44:22.854Z,16.63
2023-05-11T03:46:54.480Z,13.83
2023-05-11T03:49:23.105Z,16.40
2023-05-11T03:51:50.729Z,15.43
2023-05-11T03:54:18.035Z,15.70
2023-05-11T03:56:45.288Z,16.57
2023-05-11T03:59:16.500Z,16.50
2023-05-11T04:01:45.531Z,19.30
2023-05-11T04:04:12.965Z,16.17
2023-05-11T04:06:43.125Z,15.90
2023-05-11T04:09:17.008Z,15.80
2023-05-11T04:11:44.220Z,15.40
2023-05-11T04:14:11.396Z,16.23
2023-05-11T04:16:38.687Z,14.87
2023-05-11T04:19:08.037Z,16.13
2023-05-11T04:21:36.545Z,15.20
2023-05-11T04:24:08.901Z,14.77
2023-05-11T04:26:36.104Z,13.93
2023-05-11T04:29:03.842Z,14.23
2023-05-11T04:31:31.179Z,11.97
2023-05-11T04:33:58.802Z,12.80
2023-05-11T04:36:26.029Z,12.93
2023-05-11T04:38:53.483Z,13.27
2023-05-11T04:41:22.235Z,13.20
2023-05-11T04:43:51.238Z,12.00
2023-05-11T04:46:18.547Z,11.80
2023-05-11T04:49:11.506Z,11.73
2023-05-11T04:51:40.076Z,13.67
2023-05-11T04:54:08.438Z,12.27
2023-05-11T04:56:40.417Z,11.97
2023-05-11T04:59:08.156Z,11.70
2023-05-11T05:01:36.869Z,10.63
2023-05-11T05:04:04.208Z,11.20
2023-05-11T05:06:32.133Z,13.00
2023-05-11T05:09:04.923Z,13.33
2023-05-11T05:11:32.242Z,13.00
2023-05-11T05:13:59.524Z,13.50
2023-05-11T05:16:26.792Z,11.80
2023-05-11T05:18:54.127Z,9.13
2023-05-11T05:21:22.476Z,10.67
2023-05-11T05:23:55.712Z,9.63
2023-05-11T05:26:22.877Z,10.03
2023-05-11T05:28:52.040Z,8.90
2023-05-11T05:31:20.761Z,9.87
2023-05-11T05:33:51.965Z,10.40
2023-05-11T05:36:19.287Z,8.67
2023-05-11T05:38:46.520Z,10.93
2023-05-11T05:41:13.836Z,10.90
2023-05-11T05:43:43.840Z,9.70
2023-05-11T05:46:11.988Z,11.50
2023-05-11T05:48:44.593Z,9.50
2023-05-11T05:51:11.796Z,10.10
2023-05-11T05:53:39.625Z,11.00
2023-05-11T05:56:07.109Z,10.87
2023-05-11T05:58:34.358Z,11.13
2023-05-11T06:01:01.605Z,12.50
2023-05-11T06:03:30.146Z,12.67
2023-05-11T06:05:57.956Z,12.77
2023-05-11T06:08:25.432Z,12.50
2023-05-11T06:10:53.244Z,12.17
2023-05-11T06:13:20.557Z,12.87
2023-05-11T06:15:48.080Z,13.93
2023-05-11T06:18:24.918Z,11.87
2023-05-11T06:20:53.231Z,10.77
2023-05-11T06:23:22.013Z,14.33
2023-05-11T06:25:50.287Z,16.20
2023-05-11T06:28:18.290Z,15.50
2023-05-11T06:30:48.981Z,17.27
2023-05-11T06:33:16.522Z,16.90
2023-05-11T06:35:44.230Z,16.20
2023-05-11T06:38:13.625Z,15.83
2023-05-11T06:40:41.591Z,16.30
2023-05-11T06:43:08.840Z,16.10
2023-05-11T06:45:47.279Z,13.33
2023-05-11T06:48:16.547Z,14.20
2023-05-11T06:50:43.821Z,14.23
2023-05-11T06:53:13.932Z,14.20
2023-05-11T06:55:41.327Z,14.40
2023-05-11T06:58:08.702Z,15.37
2023-05-11T07:00:35.924Z,14.43
2023-05-11T07:03:28.852Z,14.10
2023-05-11T07:05:56.081Z,13.40
2023-05-11T07:08:23.619Z,14.77
2023-05-11T07:10:51.785Z,14.20
2023-05-11T07:13:23.308Z,15.07
2023-05-11T07:15:50.574Z,13.77
2023-05-11T07:18:17.796Z,12.70
2023-05-11T07:20:49.824Z,12.97
2023-05-11T07:23:17.225Z,13.30
2023-05-11T07:25:46.777Z,12.83
2023-05-11T07:28:13.930Z,12.43
2023-05-11T07:30:41.325Z,12.47
2023-05-11T07:33:08.571Z,11.10
2023-05-11T07:35:36.620Z,10.70
2023-05-11T07:38:05.137Z,11.10
2023-05-11T07:40:33.095Z,10.67
2023-05-11T07:43:05.038Z,10.73
2023-05-11T07:45:32.190Z,11.17
2023-05-11T07:47:59.602Z,9.30
2023-05-11T07:50:27.545Z,11.10
2023-05-11T07:52:55.018Z,10.63
2023-05-11T07:55:24.905Z,10.83
2023-05-11T07:57:54.252Z,12.10
2023-05-11T08:00:27.519Z,11.07
2023-05-11T08:02:54.757Z,10.87
2023-05-11T08:05:22.215Z,10.30
2023-05-11T08:07:49.874Z,10.57
2023-05-11T08:10:17.168Z,9.43
2023-05-11T08:12:44.413Z,9.77
2023-05-11T08:15:12.675Z,7.70
2023-05-11T08:17:40.356Z,10.20
2023-05-11T08:20:08.508Z,10.20
2023-05-11T08:22:35.697Z,10.60
2023-05-11T08:25:03.742Z,9.73
2023-05-11T08:27:30.934Z,10.33
2023-05-11T08:30:02.536Z,11.00
2023-05-11T08:32:30.654Z,11.73
2023-05-11T08:34:57.961Z,9.87
2023-05-11T08:37:25.379Z,11.30
2023-05-11T08:39:52.548Z,11.67
2023-05-11T08:42:21.948Z,11.47
2023-05-11T08:44:49.950Z,11.60
2023-05-11T08:47:23.312Z,11.40
2023-05-11T08:49:53.030Z,11.27
2023-05-11T08:52:20.585Z,10.50
2023-05-11T08:54:48.614Z,11.50
2023-05-11T08:57:16.557Z,10.30
2023-05-11T09:00:09.085Z,9.67
2023-05-11T09:02:37.342Z,10.37
2023-05-11T09:05:09.676Z,10.67
2023-05-11T09:07:38.671Z,10.43
2023-05-11T09:10:06.602Z,9.97
2023-05-11T09:12:34.951Z,10.97
2023-05-11T09:15:03.183Z,9.63
2023-05-11T09:17:30.489Z,9.20
2023-05-11T09:20:04.991Z,8.80
2023-05-11T09:22:36.443Z,9.03
2023-05-11T09:25:04.774Z,8.60
2023-05-11T09:27:32.294Z,7.67
2023-05-11T09:32:51.373Z,9.07
2023-05-11T09:35:27.251Z,8.60
2023-05-11T09:38:12.501Z,8.67
2023-05-11T09:40:43.512Z,9.17
2023-05-11T09:43:22.200Z,9.87
2023-05-11T09:45:51.585Z,8.70
2023-05-11T09:48:21.712Z,9.33
2023-05-11T09:50:50.750Z,9.30
2023-05-11T09:53:18.151Z,10.50
2023-05-11T09:55:55.571Z,10.50
2023-05-11T09:58:22.802Z,9.93
2023-05-11T10:00:52.654Z,10.27
2023-05-11T10:03:21.393Z,11.20
2023-05-11T10:06:01.422Z,10.33
2023-05-11T10:08:35.678Z,12.17
2023-05-11T10:11:03.769Z,10.37
2023-05-11T10:13:32.661Z,11.67
2023-05-11T10:16:04.402Z,10.87
2023-05-11T10:18:32.651Z,13.03
2023-05-11T10:21:00.303Z,14.57
2023-05-11T10:23:28.195Z,12.37
2023-05-11T10:25:57.932Z,12.47
2023-05-11T10:28:25.199Z,13.40
2023-05-11T10:30:54.942Z,13.80
2023-05-11T10:33:22.315Z,14.60
2023-05-11T10:35:53.900Z,14.53
2023-05-11T10:38:24.097Z,15.43
2023-05-11T10:40:54.394Z,15.97
2023-05-11T10:43:44.178Z,15.23
2023-05-11T10:46:37.614Z,14.60
2023-05-11T10:49:19.011Z,13.83
2023-05-11T10:51:57.758Z,14.30
2023-05-11T10:54:48.553Z,16.03
2023-05-11T10:57:42.032Z,15.80
2023-05-11T11:00:47.684Z,14.77
2023-05-11T11:03:15.676Z,14.37
2023-05-11T11:05:46.394Z,14.83
2023-05-11T11:08:14.008Z,15.10
2023-05-11T11:10:49.301Z,14.77
2023-05-11T11:13:19.883Z,13.73
2023-05-11T11:15:56.066Z,13.33
2023-05-11T11:18:27.479Z,13.40
2023-05-11T11:20:56.639Z,12.40
2023-05-11T11:23:44.733Z,13.10
2023-05-11T11:26:16.990Z,11.50
2023-05-11T11:29:02.153Z,11.40
2023-05-11T11:31:34.416Z,10.40
2023-05-11T11:34:27.299Z,10.70
2023-05-11T11:37:03.314Z,10.50
2023-05-11T11:40:13.175Z,10.13
2023-05-11T11:42:44.099Z,8.13
2023-05-11T11:45:32.234Z,8.57
2023-05-11T11:48:07.705Z,6.53
2023-05-11T11:50:34.974Z,6.13
2023-05-11T11:53:36.369Z,7.70
2023-05-11T11:56:04.547Z,6.47
2023-05-11T11:58:46.740Z,7.27
2023-05-11T12:01:15.859Z,6.77
2023-05-11T12:03:46.125Z,6.60
2023-05-11T12:06:13.911Z,5.80
2023-05-11T12:08:42.961Z,5.97
2023-05-11T12:11:10.175Z,5.30
2023-05-11T12:13:39.093Z,5.37
2023-05-11T12:16:09.452Z,4.67
2023-05-11T12:18:38.657Z,5.37
2023-05-11T12:21:06.724Z,5.40
2023-05-11T12:23:33.878Z,5.50
2023-05-11T12:26:05.025Z,5.53
2023-05-11T12:28:36.627Z,5.50
2023-05-11T12:31:03.852Z,6.00
2023-05-11T12:33:31.525Z,5.97
2023-05-11T12:35:58.691Z,6.63
2023-05-11T12:38:26.069Z,6.67
2023-05-11T12:40:53.495Z,7.73
2023-05-11T12:43:22.639Z,6.57
2023-05-11T12:45:49.957Z,6.57
2023-05-11T12:48:17.199Z,6.67
2023-05-11T12:50:49.340Z,6.00
2023-05-11T12:53:19.022Z,6.27
2023-05-11T12:55:58.678Z,7.67
2023-05-11T12:58:25.873Z,6.90
2023-05-11T13:00:56.339Z,6.73
2023-05-11T13:03:25.192Z,7.83
2023-05-11T13:06:03.736Z,6.20
2023-05-11T13:08:31.139Z,7.30
2023-05-11T13:11:24.469Z,7.37
2023-05-11T13:13:53.870Z,7.20
2023-05-11T13:16:29.591Z,7.00
2023-05-11T13:19:04.901Z,6.70
2023-05-11T13:21:33.941Z,6.50
2023-05-11T13:24:03.755Z,6.70
2023-05-11T13:26:31.659Z,8.40
2023-05-11T13:29:10.182Z,7.63
2023-05-11T13:31:50.931Z,6.37
2023-05-11T13:34:19.454Z,5.90
2023-05-11T13:36:47.437Z,6.60
2023-05-11T13:39:14.958Z,7.07
2023-05-11T13:41:43.315Z,5.90
2023-05-11T13:44:10.749Z,6.63
2023-05-11T13:46:37.948Z,6.10
2023-05-11T13:49:05.381Z,6.40
2023-05-11T13:51:34.160Z,5.70
2023-05-11T13:54:04.556Z,7.23
2023-05-11T13:56:31.869Z,7.30
2023-05-11T13:59:00.099Z,7.50
2023-05-11T14:01:28.897Z,7.50
2023-05-11T14:03:57.353Z,7.30
2023-05-11T14:06:26.500Z,8.10
2023-05-11T14:08:54.887Z,7.73
2023-05-11T14:11:22.929Z,6.73
2023-05-11T14:13:51.162Z,7.53
2023-05-11T14:16:20.088Z,6.47
2023-05-11T14:18:48.255Z,6.30
2023-05-11T14:21:17.531Z,7.17
2023-05-11T14:23:57.780Z,6.63
2023-05-11T14:26:33.385Z,6.80
2023-05-11T14:29:00.945Z,7.40
2023-05-11T14:31:29.876Z,6.53
2023-05-11T14:33:57.811Z,6.73
2023-05-11T14:36:25.308Z,6.70
2023-05-11T14:38:52.844Z,6.00
2023-05-11T14:41:21.284Z,8.00
2023-05-11T14:43:51.137Z,8.63
2023-05-11T14:46:18.670Z,7.30
2023-05-11T14:48:45.864Z,7.20
2023-05-11T14:51:13.082Z,6.90
2023-05-11T14:53:40.390Z,6.37
2023-05-11T14:56:07.738Z,6.73
2023-05-11T14:58:38.996Z,6.90
2023-05-11T15:01:06.212Z,6.10
2023-05-11T15:03:37.215Z,5.67
2023-05-11T15:06:04.631Z,5.80
2023-05-11T15:08:32.696Z,5.47
2023-05-11T15:11:00.409Z,5.37
2023-05-11T15:13:28.238Z,7.10
2023-05-11T15:15:56.171Z,6.57
2023-05-11T15:18:23.265Z,6.60
2023-05-11T15:20:50.582Z,6.70
2023-05-11T15:23:19.761Z,6.00
2023-05-11T15:25:48.228Z,5.90
2023-05-11T15:28:15.932Z,6.20
2023-05-11T15:30:43.132Z,5.97
2023-05-11T15:33:10.855Z,6.07
2023-05-11T15:36:12.993Z,5.33
2023-05-11T15:38:40.729Z,4.53
2023-05-11T15:41:08.961Z,5.77
2023-05-11T15:43:36.216Z,5.00
2023-05-11T15:46:07.144Z,5.97
2023-05-11T15:48:35.200Z,5.30
2023-05-11T15:51:02.848Z,5.83
2023-05-11T15:53:30.020Z,5.60
2023-05-11T15:55:58.390Z,5.40
2023-05-11T15:58:25.540Z,5.60
2023-05-11T16:01:19.233Z,6.03
2023-05-11T16:03:46.974Z,5.40
2023-05-11T16:06:15.295Z,6.60
2023-05-11T16:08:42.849Z,5.50
2023-05-11T16:11:10.488Z,5.33
2023-05-11T16:13:37.665Z,6.20
2023-05-11T16:16:05.157Z,5.70
2023-05-11T16:18:32.389Z,6.03
2023-05-11T16:20:59.661Z,6.10
2023-05-11T16:23:27.051Z,6.90
2023-05-11T16:25:56.477Z,10.90
2023-05-11T16:28:23.749Z,10.60
2023-05-11T16:30:51.163Z,9.73
2023-05-11T16:33:19.890Z,8.43
2023-05-11T16:35:47.620Z,8.23
2023-05-11T16:38:19.753Z,7.67
2023-05-11T16:40:49.393Z,6.70
2023-05-11T16:43:16.997Z,6.63
2023-05-11T16:45:44.853Z,6.30
2023-05-11T16:48:12.051Z,6.60
2023-05-11T16:50:39.721Z,6.47
2023-05-11T16:53:10.721Z,6.10
2023-05-11T16:55:37.871Z,6.03
2023-05-11T16:58:05.127Z,6.60
2023-05-11T17:00:34.301Z,7.33
2023-05-11T17:03:02.558Z,9.00
2023-05-11T17:05:30.122Z,8.50
2023-05-11T17:07:57.400Z,7.27
2023-05-11T17:10:24.669Z,7.80
2023-05-11T17:13:17.188Z,8.17
2023-05-11T17:15:44.431Z,8.40
2023-05-11T17:18:11.905Z,8.67
2023-05-11T17:21:06.422Z,9.40
2023-05-11T17:23:34.976Z,9.30
2023-05-11T17:26:12.409Z,9.70
2023-05-11T17:28:40.182Z,10.07
2023-05-11T17:31:09.039Z,10.00
2023-05-11T17:33:41.110Z,10.27
2023-05-11T17:36:10.315Z,9.63
2023-05-11T17:38:38.524Z,11.80
2023-05-11T17:41:06.232Z,11.67
2023-05-11T17:43:35.368Z,11.60
2023-05-11T17:46:04.078Z,12.13
2023-05-11T17:48:32.460Z,11.00
2023-05-11T17:51:00.238Z,12.57
2023-05-11T17:53:28.196Z,12.53
2023-05-11T17:55:58.462Z,12.33
2023-05-11T17:58:26.739Z,10.20
2023-05-11T18:00:58.216Z,10.37
2023-05-11T18:03:26.210Z,11.30
2023-05-11T18:05:55.698Z,11.63
2023-05-11T18:08:24.250Z,10.90
2023-05-11T18:10:52.355Z,10.30
2023-05-11T18:13:20.298Z,10.27
2023-05-11T18:15:48.370Z,11.00
2023-05-11T18:18:16.369Z,11.03
2023-05-11T18:20:47.582Z,11.37
2023-05-11T18:23:18.775Z,12.47
2023-05-11T18:25:46.544Z,12.17
2023-05-11T18:28:14.410Z,12.10
2023-05-11T18:30:41.795Z,11.80
2023-05-11T18:33:09.690Z,12.63
2023-05-11T18:35:38.908Z,13.40
2023-05-11T18:38:06.721Z,13.67
2023-05-11T18:40:34.798Z,14.23
2023-05-11T18:43:05.838Z,14.33
2023-05-11T18:45:34.737Z,14.67
2023-05-11T18:48:03.820Z,15.43
2023-05-11T18:50:31.220Z,16.40
2023-05-11T18:52:58.643Z,15.87
2023-05-11T18:55:29.033Z,16.20
2023-05-11T18:58:00.220Z,15.53
2023-05-11T19:00:28.031Z,17.07
2023-05-11T19:02:56.146Z,15.07
2023-05-11T19:05:23.602Z,15.50
2023-05-11T19:07:52.183Z,15.57
2023-05-11T19:10:19.754Z,16.00
2023-05-11T19:12:48.014Z,17.47
2023-05-11T19:15:15.320Z,18.30
2023-05-11T19:17:43.221Z,16.47
2023-05-11T19:20:12.319Z,16.33
2023-05-11T19:22:40.579Z,15.30
2023-05-11T19:25:08.800Z,16.60
2023-05-11T19:27:39.280Z,16.67
2023-05-11T19:30:09.429Z,16.07
2023-05-11T19:32:37.423Z,17.50
2023-05-11T19:35:06.547Z,18.30
2023-05-11T19:37:34.306Z,17.57
2023-05-11T19:40:22.279Z,18.23
2023-05-11T19:42:49.870Z,17.87
2023-05-11T19:45:17.438Z,17.50
2023-05-11T19:47:44.862Z,18.03
2023-05-11T19:50:18.032Z,16.57
2023-05-11T19:52:46.249Z,16.63
2023-05-11T19:55:14.604Z,16.60
2023-05-11T19:57:41.990Z,15.73
2023-05-11T20:00:09.842Z,16.30
2023-05-11T20:02:37.321Z,15.63
2023-05-11T20:05:05.310Z,15.10
2023-05-11T20:07:32.764Z,15.90
2023-05-11T20:10:00.786Z,15.53
2023-05-11T20:12:28.759Z,16.50
2023-05-11T20:14:56.135Z,17.43
2023-05-11T20:17:23.489Z,15.57
2023-05-11T20:19:51.204Z,14.83
2023-05-11T20:22:18.740Z,17.27
2023-05-11T20:24:46.267Z,18.43
2023-05-11T20:27:13.599Z,18.13
2023-05-11T20:29:40.922Z,18.00
2023-05-11T20:32:08.578Z,18.40
2023-05-11T20:34:38.299Z,18.77
2023-05-11T20:37:05.719Z,20.80
2023-05-11T20:39:33.020Z,19.33
2023-05-11T20:42:00.410Z,20.20
2023-05-11T20:44:29.473Z,20.70
2023-05-11T20:46:56.805Z,20.30
2023-05-11T20:49:37.633Z,19.60
2023-05-11T20:52:07.486Z,20.40
2023-05-11T20:54:36.006Z,19.40
2023-05-11T20:57:08.019Z,18.70
2023-05-11T21:02:05.610Z,20.70
2023-05-11T21:04:33.667Z,20.27
2023-05-11T21:07:00.928Z,19.87
2023-05-11T21:09:28.084Z,20.57
2023-05-11T21:11:55.369Z,20.70
2023-05-11T21:14:22.747Z,19.80
2023-05-11T21:16:50.094Z,19.53
2023-05-11T21:19:18.273Z,19.30
2023-05-11T21:21:45.702Z,20.57
2023-05-11T21:24:13.866Z,21.23
2023-05-11T21:26:41.603Z,21.70
2023-05-11T21:29:12.017Z,21.77
2023-05-11T21:31:39.311Z,22.40
2023-05-11T21:34:06.438Z,23.80
2023-05-11T21:36:33.634Z,23.10
2023-05-11T21:39:00.982Z,21.03
2023-05-11T21:41:28.193Z,19.57
2023-05-11T21:43:55.377Z,23.50
2023-05-11T21:46:22.575Z,21.67
2023-05-11T21:48:49.805Z,21.63
2023-05-11T21:51:16.962Z,22.40
2023-05-11T21:53:44.187Z,20.77
2023-05-11T21:56:11.358Z,20.33
2023-05-11T21:58:38.583Z,21.53
2023-05-11T22:01:05.761Z,21.57
2023-05-11T22:03:33.054Z,21.93
2023-05-11T22:06:00.387Z,21.57
2023-05-11T22:08:27.575Z,20.93
2023-05-11T22:10:55.228Z,22.00
2023-05-11T22:13:22.482Z,22.80
2023-05-11T22:15:49.740Z,24.03
2023-05-11T22:18:16.956Z,24.50
2023-05-11T22:20:44.405Z,24.97
2023-05-11T22:23:15.338Z,23.57
2023-05-11T22:25:42.763Z,23.00
2023-05-11T22:28:09.988Z,23.73
2023-05-11T22:30:37.453Z,21.97
2023-05-11T22:33:05.221Z,21.73
2023-05-11T22:35:32.533Z,21.43
2023-05-11T22:38:01.638Z,20.83
2023-05-11T22:40:28.835Z,21.90
2023-05-11T22:42:56.991Z,24.30
2023-05-11T22:45:24.297Z,21.40
2023-05-11T22:47:51.555Z,20.23
2023-05-11T22:50:19.157Z,21.60
2023-05-11T22:52:47.752Z,20.07
2023-05-11T22:55:14.896Z,19.97
2023-05-11T22:57:42.801Z,19.83
2023-05-11T23:00:12.285Z,23.13
2023-05-11T23:02:40.117Z,21.77
2023-05-11T23:05:09.250Z,25.40
2023-05-11T23:07:36.462Z,27.77
2023-05-11T23:10:03.805Z,26.30
2023-05-11T23:12:31.224Z,27.87
2023-05-11T23:14:58.406Z,28.30
2023-05-11T23:17:25.673Z,29.83
2023-05-11T23:19:53.534Z,30.20
2023-05-11T23:22:20.711Z,31.50
2023-05-11T23:24:47.900Z,36.03
2023-05-11T23:27:16.203Z,34.87
2023-05-11T23:29:44.025Z,34.20
2023-05-11T23:32:11.168Z,36.13
2023-05-11T23:34:38.349Z,37.77
2023-05-11T23:37:06.230Z,33.23
2023-05-11T23:39:34.194Z,33.20
2023-05-11T23:42:01.483Z,25.87
2023-05-11T23:44:28.689Z,29.03
2023-05-11T23:46:55.988Z,32.30
2023-05-11T23:49:23.620Z,28.30
2023-05-11T23:51:50.850Z,23.00
2023-05-11T23:54:18.033Z,23.10
2023-05-11T23:56:47.218Z,31.10
2023-05-11T23:59:14.404Z,25.90
